sensor_id;sensor_type;location;lat;lon;timestamp;P1;durP1;ratioP1;P2;durP2;ratioP2
53642;SDS011;39546;45.534;12.048;2023-02-12T00:00:18;69.62;;;53.40;;
53642;SDS011;39546;45.534;12.048;2023-02-12T00:06:20;69.07;;;49.00;;
53642;SDS011;39546;45.534;12.048;2023-02-12T00:12:23;63.58;;;40.92;;
53642;SDS011;39546;45.534;12.048;2023-02-12T00:18:25;60.50;;;35.33;;
53642;SDS011;39546;45.534;12.048;2023-02-12T00:24:27;70.95;;;52.67;;
53642;SDS011;39546;45.534;12.048;2023-02-12T00:30:29;47.28;;;33.45;;
53642;SDS011;39546;45.534;12.048;2023-02-12T00:36:31;51.55;;;34.63;;
53642;SDS011;39546;45.534;12.048;2023-02-12T00:42:33;53.10;;;41.55;;
53642;SDS011;39546;45.534;12.048;2023-02-12T00:48:36;65.22;;;50.03;;
53642;SDS011;39546;45.534;12.048;2023-02-12T00:54:38;44.50;;;35.17;;
53642;SDS011;39546;45.534;12.048;2023-02-12T01:00:40;49.55;;;38.65;;
53642;SDS011;39546;45.534;12.048;2023-02-12T01:06:42;47.85;;;35.15;;
53642;SDS011;39546;45.534;12.048;2023-02-12T01:12:44;45.55;;;33.47;;
53642;SDS011;39546;45.534;12.048;2023-02-12T01:18:47;41.72;;;30.98;;
53642;SDS011;39546;45.534;12.048;2023-02-12T01:24:50;36.17;;;25.65;;
53642;SDS011;39546;45.534;12.048;2023-02-12T01:30:52;71.80;;;55.80;;
53642;SDS011;39546;45.534;12.048;2023-02-12T01:36:54;57.45;;;50.12;;
53642;SDS011;39546;45.534;12.048;2023-02-12T01:42:58;44.22;;;34.38;;
53642;SDS011;39546;45.534;12.048;2023-02-12T01:49:03;42.83;;;32.47;;
53642;SDS011;39546;45.534;12.048;2023-02-12T01:55:08;51.17;;;41.17;;
53642;SDS011;39546;45.534;12.048;2023-02-12T02:01:16;42.05;;;33.42;;
53642;SDS011;39546;45.534;12.048;2023-02-12T02:07:20;46.75;;;35.75;;
53642;SDS011;39546;45.534;12.048;2023-02-12T02:13:22;45.42;;;36.47;;
53642;SDS011;39546;45.534;12.048;2023-02-12T02:45:20;41.83;;;31.80;;
53642;SDS011;39546;45.534;12.048;2023-02-12T02:51:34;66.32;;;49.33;;
53642;SDS011;39546;45.534;12.048;2023-02-12T02:57:54;48.17;;;41.15;;
53642;SDS011;39546;45.534;12.048;2023-02-12T03:04:27;50.17;;;37.78;;
53642;SDS011;39546;45.534;12.048;2023-02-12T03:10:35;51.95;;;38.35;;
53642;SDS011;39546;45.534;12.048;2023-02-12T03:23:02;60.33;;;48.15;;
53642;SDS011;39546;45.534;12.048;2023-02-12T03:29:08;56.17;;;33.63;;
53642;SDS011;39546;45.534;12.048;2023-02-12T03:41:26;68.72;;;50.17;;
53642;SDS011;39546;45.534;12.048;2023-02-12T03:48:10;54.97;;;43.13;;
53642;SDS011;39546;45.534;12.048;2023-02-12T03:54:19;42.10;;;31.00;;
53642;SDS011;39546;45.534;12.048;2023-02-12T04:00:22;44.28;;;33.75;;
53642;SDS011;39546;45.534;12.048;2023-02-12T04:06:27;63.35;;;44.67;;
53642;SDS011;39546;45.534;12.048;2023-02-12T04:12:33;47.47;;;38.08;;
53642;SDS011;39546;45.534;12.048;2023-02-12T04:18:42;51.78;;;42.42;;
53642;SDS011;39546;45.534;12.048;2023-02-12T04:43:29;59.85;;;45.97;;
53642;SDS011;39546;45.534;12.048;2023-02-12T04:49:34;64.82;;;48.35;;
53642;SDS011;39546;45.534;12.048;2023-02-12T04:55:37;59.15;;;47.58;;
53642;SDS011;39546;45.534;12.048;2023-02-12T05:01:40;71.90;;;51.40;;
53642;SDS011;39546;45.534;12.048;2023-02-12T05:07:43;53.20;;;43.15;;
53642;SDS011;39546;45.534;12.048;2023-02-12T05:13:48;67.40;;;51.17;;
53642;SDS011;39546;45.534;12.048;2023-02-12T05:19:52;65.47;;;49.13;;
53642;SDS011;39546;45.534;12.048;2023-02-12T05:25:56;67.87;;;51.08;;
53642;SDS011;39546;45.534;12.048;2023-02-12T05:31:59;65.10;;;49.10;;
53642;SDS011;39546;45.534;12.048;2023-02-12T05:38:01;55.47;;;42.03;;
53642;SDS011;39546;45.534;12.048;2023-02-12T05:44:04;45.50;;;38.20;;
53642;SDS011;39546;45.534;12.048;2023-02-12T05:50:07;62.65;;;47.33;;
53642;SDS011;39546;45.534;12.048;2023-02-12T05:56:16;41.72;;;35.95;;
53642;SDS011;39546;45.534;12.048;2023-02-12T06:02:21;40.83;;;34.03;;
53642;SDS011;39546;45.534;12.048;2023-02-12T06:08:23;52.08;;;43.70;;
53642;SDS011;39546;45.534;12.048;2023-02-12T06:14:25;39.28;;;33.55;;
53642;SDS011;39546;45.534;12.048;2023-02-12T06:20:27;38.95;;;29.37;;
53642;SDS011;39546;45.534;12.048;2023-02-12T06:26:29;47.05;;;32.30;;
53642;SDS011;39546;45.534;12.048;2023-02-12T06:32:32;58.87;;;44.95;;
53642;SDS011;39546;45.534;12.048;2023-02-12T06:38:34;56.63;;;46.60;;
53642;SDS011;39546;45.534;12.048;2023-02-12T06:44:36;59.40;;;47.88;;
53642;SDS011;39546;45.534;12.048;2023-02-12T06:50:38;62.55;;;45.65;;
53642;SDS011;39546;45.534;12.048;2023-02-12T06:56:40;57.42;;;45.25;;
53642;SDS011;39546;45.534;12.048;2023-02-12T07:02:42;44.28;;;37.33;;
53642;SDS011;39546;45.534;12.048;2023-02-12T07:08:44;38.65;;;30.52;;
53642;SDS011;39546;45.534;12.048;2023-02-12T07:14:58;51.83;;;38.88;;
53642;SDS011;39546;45.534;12.048;2023-02-12T07:21:00;54.75;;;42.10;;
53642;SDS011;39546;45.534;12.048;2023-02-12T07:27:02;52.20;;;44.50;;
53642;SDS011;39546;45.534;12.048;2023-02-12T07:33:13;44.47;;;35.00;;
53642;SDS011;39546;45.534;12.048;2023-02-12T07:39:15;63.53;;;53.33;;
53642;SDS011;39546;45.534;12.048;2023-02-12T07:45:17;52.75;;;40.33;;
53642;SDS011;39546;45.534;12.048;2023-02-12T07:51:19;46.72;;;36.75;;
53642;SDS011;39546;45.534;12.048;2023-02-12T07:57:22;46.40;;;37.63;;
53642;SDS011;39546;45.534;12.048;2023-02-12T08:03:26;38.40;;;26.92;;
53642;SDS011;39546;45.534;12.048;2023-02-12T08:09:29;33.35;;;25.08;;
53642;SDS011;39546;45.534;12.048;2023-02-12T08:15:31;29.63;;;24.92;;
53642;SDS011;39546;45.534;12.048;2023-02-12T08:21:33;50.97;;;41.92;;
53642;SDS011;39546;45.534;12.048;2023-02-12T08:27:36;40.05;;;30.88;;
53642;SDS011;39546;45.534;12.048;2023-02-12T08:33:41;30.25;;;21.73;;
53642;SDS011;39546;45.534;12.048;2023-02-12T08:39:47;36.90;;;22.85;;
53642;SDS011;39546;45.534;12.048;2023-02-12T08:45:49;24.85;;;17.85;;
53642;SDS011;39546;45.534;12.048;2023-02-12T08:51:52;27.90;;;19.02;;
53642;SDS011;39546;45.534;12.048;2023-02-12T08:57:56;22.52;;;17.33;;
53642;SDS011;39546;45.534;12.048;2023-02-12T09:03:58;30.77;;;20.42;;
53642;SDS011;39546;45.534;12.048;2023-02-12T09:10:01;22.52;;;16.58;;
53642;SDS011;39546;45.534;12.048;2023-02-12T09:16:03;32.28;;;17.67;;
53642;SDS011;39546;45.534;12.048;2023-02-12T09:22:06;31.80;;;21.87;;
53642;SDS011;39546;45.534;12.048;2023-02-12T09:28:09;40.35;;;25.90;;
53642;SDS011;39546;45.534;12.048;2023-02-12T09:34:12;32.38;;;23.08;;
53642;SDS011;39546;45.534;12.048;2023-02-12T09:40:26;46.17;;;35.60;;
53642;SDS011;39546;45.534;12.048;2023-02-12T09:46:41;44.83;;;24.98;;
53642;SDS011;39546;45.534;12.048;2023-02-12T09:52:50;29.87;;;23.12;;
53642;SDS011;39546;45.534;12.048;2023-02-12T09:58:58;34.17;;;26.85;;
53642;SDS011;39546;45.534;12.048;2023-02-12T10:05:05;39.65;;;31.17;;
53642;SDS011;39546;45.534;12.048;2023-02-12T10:24:01;42.70;;;31.20;;
53642;SDS011;39546;45.534;12.048;2023-02-12T10:36:42;52.20;;;38.92;;
53642;SDS011;39546;45.534;12.048;2023-02-12T10:42:47;56.50;;;38.13;;
53642;SDS011;39546;45.534;12.048;2023-02-12T10:48:52;42.38;;;32.05;;
53642;SDS011;39546;45.534;12.048;2023-02-12T10:54:58;45.65;;;32.80;;
53642;SDS011;39546;45.534;12.048;2023-02-12T11:01:01;46.17;;;34.70;;
53642;SDS011;39546;45.534;12.048;2023-02-12T11:07:05;44.05;;;31.17;;
53642;SDS011;39546;45.534;12.048;2023-02-12T11:13:21;39.53;;;27.92;;
53642;SDS011;39546;45.534;12.048;2023-02-12T11:19:26;38.55;;;28.45;;
53642;SDS011;39546;45.534;12.048;2023-02-12T11:25:34;41.25;;;31.27;;
53642;SDS011;39546;45.534;12.048;2023-02-12T11:31:37;36.90;;;27.20;;
53642;SDS011;39546;45.534;12.048;2023-02-12T11:37:42;45.00;;;32.60;;
53642;SDS011;39546;45.534;12.048;2023-02-12T11:43:46;41.35;;;29.05;;
53642;SDS011;39546;45.534;12.048;2023-02-12T11:49:53;42.15;;;29.37;;
53642;SDS011;39546;45.534;12.048;2023-02-12T11:56:05;30.60;;;23.85;;
53642;SDS011;39546;45.534;12.048;2023-02-12T12:08:24;39.53;;;27.55;;
53642;SDS011;39546;45.534;12.048;2023-02-12T12:14:34;35.80;;;30.53;;
53642;SDS011;39546;45.534;12.048;2023-02-12T12:21:26;34.03;;;26.27;;
53642;SDS011;39546;45.534;12.048;2023-02-12T12:34:20;33.00;;;24.73;;
53642;SDS011;39546;45.534;12.048;2023-02-12T12:40:41;33.50;;;21.25;;
53642;SDS011;39546;45.534;12.048;2023-02-12T12:53:15;32.13;;;20.80;;
53642;SDS011;39546;45.534;12.048;2023-02-12T12:59:39;27.80;;;18.23;;
53642;SDS011;39546;45.534;12.048;2023-02-12T13:25:16;23.35;;;17.08;;
53642;SDS011;39546;45.534;12.048;2023-02-12T13:31:46;15.85;;;13.75;;
53642;SDS011;39546;45.534;12.048;2023-02-12T13:37:54;17.23;;;10.32;;
53642;SDS011;39546;45.534;12.048;2023-02-12T13:44:19;27.45;;;14.30;;
53642;SDS011;39546;45.534;12.048;2023-02-12T14:02:52;20.12;;;15.15;;
53642;SDS011;39546;45.534;12.048;2023-02-12T14:09:08;18.62;;;14.13;;
53642;SDS011;39546;45.534;12.048;2023-02-12T14:15:28;15.48;;;11.43;;
53642;SDS011;39546;45.534;12.048;2023-02-12T14:21:34;16.08;;;11.80;;
53642;SDS011;39546;45.534;12.048;2023-02-12T14:27:46;14.77;;;11.38;;
53642;SDS011;39546;45.534;12.048;2023-02-12T14:33:51;20.45;;;14.35;;
53642;SDS011;39546;45.534;12.048;2023-02-12T14:52:47;18.35;;;10.95;;
53642;SDS011;39546;45.534;12.048;2023-02-12T14:58:56;17.73;;;14.95;;
53642;SDS011;39546;45.534;12.048;2023-02-12T15:05:02;15.20;;;10.50;;
53642;SDS011;39546;45.534;12.048;2023-02-12T15:17:25;19.45;;;11.52;;
53642;SDS011;39546;45.534;12.048;2023-02-12T15:23:41;15.15;;;10.98;;
53642;SDS011;39546;45.534;12.048;2023-02-12T15:29:48;21.98;;;14.30;;
53642;SDS011;39546;45.534;12.048;2023-02-12T15:35:55;19.15;;;12.30;;
53642;SDS011;39546;45.534;12.048;2023-02-12T15:41:58;21.30;;;13.60;;
53642;SDS011;39546;45.534;12.048;2023-02-12T15:48:02;14.95;;;11.20;;
53642;SDS011;39546;45.534;12.048;2023-02-12T15:54:18;22.52;;;10.07;;
53642;SDS011;39546;45.534;12.048;2023-02-12T16:00:28;19.12;;;10.57;;
53642;SDS011;39546;45.534;12.048;2023-02-12T16:06:41;14.98;;;10.57;;
53642;SDS011;39546;45.534;12.048;2023-02-12T16:12:44;13.10;;;7.60;;
53642;SDS011;39546;45.534;12.048;2023-02-12T16:19:01;10.77;;;7.18;;
53642;SDS011;39546;45.534;12.048;2023-02-12T16:25:16;11.50;;;8.20;;
53642;SDS011;39546;45.534;12.048;2023-02-12T16:31:28;12.30;;;7.55;;
53642;SDS011;39546;45.534;12.048;2023-02-12T16:43:38;11.82;;;7.28;;
53642;SDS011;39546;45.534;12.048;2023-02-12T16:49:41;11.80;;;8.45;;
53642;SDS011;39546;45.534;12.048;2023-02-12T16:56:02;14.43;;;9.27;;
53642;SDS011;39546;45.534;12.048;2023-02-12T17:02:09;16.70;;;8.05;;
53642;SDS011;39546;45.534;12.048;2023-02-12T17:08:16;9.30;;;6.00;;
53642;SDS011;39546;45.534;12.048;2023-02-12T17:14:19;10.40;;;5.78;;
53642;SDS011;39546;45.534;12.048;2023-02-12T17:20:22;24.10;;;13.95;;
53642;SDS011;39546;45.534;12.048;2023-02-12T17:26:24;11.52;;;7.93;;
53642;SDS011;39546;45.534;12.048;2023-02-12T17:32:26;14.45;;;9.13;;
53642;SDS011;39546;45.534;12.048;2023-02-12T17:38:28;16.52;;;11.60;;
53642;SDS011;39546;45.534;12.048;2023-02-12T17:44:30;14.02;;;9.55;;
53642;SDS011;39546;45.534;12.048;2023-02-12T17:50:32;15.38;;;9.15;;
53642;SDS011;39546;45.534;12.048;2023-02-12T17:56:34;16.90;;;9.25;;
53642;SDS011;39546;45.534;12.048;2023-02-12T18:02:37;15.27;;;8.60;;
53642;SDS011;39546;45.534;12.048;2023-02-12T18:08:39;14.15;;;7.55;;
53642;SDS011;39546;45.534;12.048;2023-02-12T18:14:42;21.42;;;11.60;;
53642;SDS011;39546;45.534;12.048;2023-02-12T18:20:44;17.90;;;9.02;;
53642;SDS011;39546;45.534;12.048;2023-02-12T18:26:46;11.05;;;7.03;;
53642;SDS011;39546;45.534;12.048;2023-02-12T18:32:48;9.02;;;4.87;;
53642;SDS011;39546;45.534;12.048;2023-02-12T18:38:51;7.68;;;4.65;;
53642;SDS011;39546;45.534;12.048;2023-02-12T18:44:53;13.20;;;8.57;;
53642;SDS011;39546;45.534;12.048;2023-02-12T18:50:58;11.30;;;5.20;;
53642;SDS011;39546;45.534;12.048;2023-02-12T18:57:02;11.23;;;5.45;;
53642;SDS011;39546;45.534;12.048;2023-02-12T19:03:04;13.70;;;8.70;;
53642;SDS011;39546;45.534;12.048;2023-02-12T19:09:06;9.65;;;6.45;;
53642;SDS011;39546;45.534;12.048;2023-02-12T19:15:10;17.87;;;10.70;;
53642;SDS011;39546;45.534;12.048;2023-02-12T19:21:13;12.55;;;6.75;;
53642;SDS011;39546;45.534;12.048;2023-02-12T19:27:16;9.73;;;5.57;;
53642;SDS011;39546;45.534;12.048;2023-02-12T19:33:18;8.25;;;5.28;;
53642;SDS011;39546;45.534;12.048;2023-02-12T19:39:21;10.68;;;6.53;;
53642;SDS011;39546;45.534;12.048;2023-02-12T19:45:24;18.12;;;11.48;;
53642;SDS011;39546;45.534;12.048;2023-02-12T19:51:26;15.52;;;10.48;;
53642;SDS011;39546;45.534;12.048;2023-02-12T19:57:31;14.30;;;9.38;;
53642;SDS011;39546;45.534;12.048;2023-02-12T20:03:34;21.42;;;12.57;;
53642;SDS011;39546;45.534;12.048;2023-02-12T20:09:37;19.83;;;10.30;;
53642;SDS011;39546;45.534;12.048;2023-02-12T20:15:40;16.10;;;11.05;;
53642;SDS011;39546;45.534;12.048;2023-02-12T20:21:42;9.95;;;6.65;;
53642;SDS011;39546;45.534;12.048;2023-02-12T20:27:44;15.15;;;11.18;;
53642;SDS011;39546;45.534;12.048;2023-02-12T20:33:47;16.70;;;11.85;;
53642;SDS011;39546;45.534;12.048;2023-02-12T20:39:53;14.77;;;7.55;;
53642;SDS011;39546;45.534;12.048;2023-02-12T20:45:55;18.60;;;13.52;;
53642;SDS011;39546;45.534;12.048;2023-02-12T20:52:04;15.43;;;11.47;;
53642;SDS011;39546;45.534;12.048;2023-02-12T20:58:11;15.18;;;10.68;;
53642;SDS011;39546;45.534;12.048;2023-02-12T21:11:00;18.73;;;11.70;;
53642;SDS011;39546;45.534;12.048;2023-02-12T21:17:04;14.50;;;7.72;;
53642;SDS011;39546;45.534;12.048;2023-02-12T21:23:07;13.55;;;8.88;;
53642;SDS011;39546;45.534;12.048;2023-02-12T21:29:09;16.67;;;11.15;;
53642;SDS011;39546;45.534;12.048;2023-02-12T21:35:11;14.27;;;8.40;;
53642;SDS011;39546;45.534;12.048;2023-02-12T21:41:17;14.82;;;8.88;;
53642;SDS011;39546;45.534;12.048;2023-02-12T21:47:20;18.08;;;12.63;;
53642;SDS011;39546;45.534;12.048;2023-02-12T21:53:23;16.98;;;12.40;;
53642;SDS011;39546;45.534;12.048;2023-02-12T21:59:25;23.08;;;16.20;;
53642;SDS011;39546;45.534;12.048;2023-02-12T22:05:29;31.30;;;19.58;;
53642;SDS011;39546;45.534;12.048;2023-02-12T22:11:33;16.30;;;12.05;;
53642;SDS011;39546;45.534;12.048;2023-02-12T22:17:36;20.80;;;13.73;;
53642;SDS011;39546;45.534;12.048;2023-02-12T22:23:39;16.37;;;12.70;;
53642;SDS011;39546;45.534;12.048;2023-02-12T22:29:42;15.40;;;11.77;;
53642;SDS011;39546;45.534;12.048;2023-02-12T22:35:45;29.65;;;16.42;;
53642;SDS011;39546;45.534;12.048;2023-02-12T22:41:47;21.02;;;15.88;;
53642;SDS011;39546;45.534;12.048;2023-02-12T22:47:49;20.30;;;14.80;;
53642;SDS011;39546;45.534;12.048;2023-02-12T22:53:51;23.48;;;17.23;;
53642;SDS011;39546;45.534;12.048;2023-02-12T23:00:00;23.65;;;15.60;;
53642;SDS011;39546;45.534;12.048;2023-02-12T23:06:06;27.37;;;20.15;;
53642;SDS011;39546;45.534;12.048;2023-02-12T23:12:11;18.12;;;14.85;;
53642;SDS011;39546;45.534;12.048;2023-02-12T23:18:13;18.62;;;12.98;;
53642;SDS011;39546;45.534;12.048;2023-02-12T23:24:16;21.83;;;14.43;;
53642;SDS011;39546;45.534;12.048;2023-02-12T23:30:18;18.33;;;12.75;;
53642;SDS011;39546;45.534;12.048;2023-02-12T23:36:20;20.40;;;13.50;;
53642;SDS011;39546;45.534;12.048;2023-02-12T23:42:22;19.52;;;14.55;;
53642;SDS011;39546;45.534;12.048;2023-02-12T23:48:25;97.20;;;68.43;;
53642;SDS011;39546;45.534;12.048;2023-02-12T23:54:27;30.15;;;22.45;;
